sensor_id;sensor_type;location;lat;lon;timestamp;P1;durP1;ratioP1;P2;durP2;ratioP2
29500;SDS011;16450;50.288;10.966;2023-02-17T00:00:17;60.10;;;30.37;;
29500;SDS011;16450;50.288;10.966;2023-02-17T00:03:19;60.83;;;32.33;;
29500;SDS011;16450;50.288;10.966;2023-02-17T00:06:22;62.17;;;32.30;;
29500;SDS011;16450;50.288;10.966;2023-02-17T00:09:26;62.10;;;31.97;;
29500;SDS011;16450;50.288;10.966;2023-02-17T00:12:27;65.97;;;32.93;;
29500;SDS011;16450;50.288;10.966;2023-02-17T00:15:29;59.43;;;31.20;;
29500;SDS011;16450;50.288;10.966;2023-02-17T00:18:31;64.07;;;32.83;;
29500;SDS011;16450;50.288;10.966;2023-02-17T00:21:32;61.23;;;31.03;;
29500;SDS011;16450;50.288;10.966;2023-02-17T00:24:36;65.40;;;31.90;;
29500;SDS011;16450;50.288;10.966;2023-02-17T00:27:39;61.47;;;31.70;;
29500;SDS011;16450;50.288;10.966;2023-02-17T00:30:40;58.97;;;32.13;;
29500;SDS011;16450;50.288;10.966;2023-02-17T00:33:42;55.67;;;30.70;;
29500;SDS011;16450;50.288;10.966;2023-02-17T00:36:44;62.27;;;32.33;;
29500;SDS011;16450;50.288;10.966;2023-02-17T00:39:46;54.87;;;29.77;;
29500;SDS011;16450;50.288;10.966;2023-02-17T00:42:48;61.33;;;31.13;;
29500;SDS011;16450;50.288;10.966;2023-02-17T00:45:50;64.87;;;34.40;;
29500;SDS011;16450;50.288;10.966;2023-02-17T00:48:52;62.47;;;31.50;;
29500;SDS011;16450;50.288;10.966;2023-02-17T00:51:54;60.07;;;31.80;;
29500;SDS011;16450;50.288;10.966;2023-02-17T00:54:55;59.50;;;32.40;;
29500;SDS011;16450;50.288;10.966;2023-02-17T00:57:57;60.03;;;31.63;;
29500;SDS011;16450;50.288;10.966;2023-02-17T01:00:59;57.30;;;29.83;;
29500;SDS011;16450;50.288;10.966;2023-02-17T01:04:01;61.20;;;32.27;;
29500;SDS011;16450;50.288;10.966;2023-02-17T01:07:03;59.97;;;31.63;;
29500;SDS011;16450;50.288;10.966;2023-02-17T01:10:05;61.70;;;33.40;;
29500;SDS011;16450;50.288;10.966;2023-02-17T01:13:08;60.13;;;32.17;;
29500;SDS011;16450;50.288;10.966;2023-02-17T01:16:19;60.33;;;32.03;;
29500;SDS011;16450;50.288;10.966;2023-02-17T01:19:23;57.87;;;31.83;;
29500;SDS011;16450;50.288;10.966;2023-02-17T01:22:24;60.17;;;31.40;;
29500;SDS011;16450;50.288;10.966;2023-02-17T01:25:26;59.30;;;32.17;;
29500;SDS011;16450;50.288;10.966;2023-02-17T01:28:28;59.53;;;30.43;;
29500;SDS011;16450;50.288;10.966;2023-02-17T01:31:31;59.97;;;31.10;;
29500;SDS011;16450;50.288;10.966;2023-02-17T01:34:33;61.70;;;31.80;;
29500;SDS011;16450;50.288;10.966;2023-02-17T01:37:35;57.60;;;29.73;;
29500;SDS011;16450;50.288;10.966;2023-02-17T01:40:37;58.97;;;31.30;;
29500;SDS011;16450;50.288;10.966;2023-02-17T01:47:27;60.57;;;33.73;;
29500;SDS011;16450;50.288;10.966;2023-02-17T01:50:48;63.60;;;33.20;;
29500;SDS011;16450;50.288;10.966;2023-02-17T01:57:00;59.57;;;32.40;;
29500;SDS011;16450;50.288;10.966;2023-02-17T02:00:04;55.37;;;30.20;;
29500;SDS011;16450;50.288;10.966;2023-02-17T02:03:08;63.57;;;33.33;;
29500;SDS011;16450;50.288;10.966;2023-02-17T02:06:15;55.90;;;30.43;;
29500;SDS011;16450;50.288;10.966;2023-02-17T02:09:29;59.27;;;31.20;;
29500;SDS011;16450;50.288;10.966;2023-02-17T02:12:35;59.27;;;30.50;;
29500;SDS011;16450;50.288;10.966;2023-02-17T02:15:53;61.13;;;31.07;;
29500;SDS011;16450;50.288;10.966;2023-02-17T02:19:27;60.10;;;31.23;;
29500;SDS011;16450;50.288;10.966;2023-02-17T02:23:35;61.43;;;32.27;;
29500;SDS011;16450;50.288;10.966;2023-02-17T02:26:29;54.87;;;30.13;;
29500;SDS011;16450;50.288;10.966;2023-02-17T02:36:18;59.10;;;31.43;;
29500;SDS011;16450;50.288;10.966;2023-02-17T02:39:28;60.60;;;30.87;;
29500;SDS011;16450;50.288;10.966;2023-02-17T02:42:32;63.93;;;31.80;;
29500;SDS011;16450;50.288;10.966;2023-02-17T02:45:35;61.87;;;30.10;;
29500;SDS011;16450;50.288;10.966;2023-02-17T02:48:37;54.13;;;29.13;;
29500;SDS011;16450;50.288;10.966;2023-02-17T02:51:53;59.80;;;30.83;;
29500;SDS011;16450;50.288;10.966;2023-02-17T02:58:20;53.60;;;28.93;;
29500;SDS011;16450;50.288;10.966;2023-02-17T03:04:57;56.10;;;30.30;;
29500;SDS011;16450;50.288;10.966;2023-02-17T03:08:29;60.87;;;30.70;;
29500;SDS011;16450;50.288;10.966;2023-02-17T03:11:40;50.40;;;27.30;;
29500;SDS011;16450;50.288;10.966;2023-02-17T03:14:42;62.20;;;31.97;;
29500;SDS011;16450;50.288;10.966;2023-02-17T03:17:44;63.43;;;31.90;;
29500;SDS011;16450;50.288;10.966;2023-02-17T03:20:50;60.03;;;31.00;;
29500;SDS011;16450;50.288;10.966;2023-02-17T03:23:56;57.20;;;28.00;;
29500;SDS011;16450;50.288;10.966;2023-02-17T03:26:58;53.27;;;28.03;;
29500;SDS011;16450;50.288;10.966;2023-02-17T03:30:00;57.23;;;29.40;;
29500;SDS011;16450;50.288;10.966;2023-02-17T03:33:02;57.23;;;29.50;;
29500;SDS011;16450;50.288;10.966;2023-02-17T03:36:04;57.47;;;29.73;;
29500;SDS011;16450;50.288;10.966;2023-02-17T03:39:06;55.87;;;28.67;;
29500;SDS011;16450;50.288;10.966;2023-02-17T03:42:08;54.53;;;29.47;;
29500;SDS011;16450;50.288;10.966;2023-02-17T03:45:10;55.27;;;29.07;;
29500;SDS011;16450;50.288;10.966;2023-02-17T03:48:12;54.13;;;28.47;;
29500;SDS011;16450;50.288;10.966;2023-02-17T03:51:15;53.90;;;28.80;;
29500;SDS011;16450;50.288;10.966;2023-02-17T03:54:19;57.07;;;29.07;;
29500;SDS011;16450;50.288;10.966;2023-02-17T03:57:21;57.27;;;30.60;;
29500;SDS011;16450;50.288;10.966;2023-02-17T04:00:23;58.43;;;29.70;;
29500;SDS011;16450;50.288;10.966;2023-02-17T04:03:25;54.60;;;29.77;;
29500;SDS011;16450;50.288;10.966;2023-02-17T04:06:27;54.77;;;30.10;;
29500;SDS011;16450;50.288;10.966;2023-02-17T04:09:29;54.83;;;30.50;;
29500;SDS011;16450;50.288;10.966;2023-02-17T04:12:30;57.20;;;32.60;;
29500;SDS011;16450;50.288;10.966;2023-02-17T04:15:32;49.27;;;27.77;;
29500;SDS011;16450;50.288;10.966;2023-02-17T04:18:34;59.87;;;31.73;;
29500;SDS011;16450;50.288;10.966;2023-02-17T04:21:37;60.97;;;31.10;;
29500;SDS011;16450;50.288;10.966;2023-02-17T04:24:39;58.53;;;30.73;;
29500;SDS011;16450;50.288;10.966;2023-02-17T04:27:40;54.13;;;30.80;;
29500;SDS011;16450;50.288;10.966;2023-02-17T04:30:43;58.80;;;30.90;;
29500;SDS011;16450;50.288;10.966;2023-02-17T04:33:46;61.40;;;29.30;;
29500;SDS011;16450;50.288;10.966;2023-02-17T04:36:48;55.07;;;29.37;;
29500;SDS011;16450;50.288;10.966;2023-02-17T04:39:50;57.57;;;29.53;;
29500;SDS011;16450;50.288;10.966;2023-02-17T04:42:52;55.70;;;28.37;;
29500;SDS011;16450;50.288;10.966;2023-02-17T04:45:54;50.47;;;26.30;;
29500;SDS011;16450;50.288;10.966;2023-02-17T04:48:56;51.77;;;27.17;;
29500;SDS011;16450;50.288;10.966;2023-02-17T04:51:58;54.40;;;28.07;;
29500;SDS011;16450;50.288;10.966;2023-02-17T04:55:00;56.90;;;28.30;;
29500;SDS011;16450;50.288;10.966;2023-02-17T04:58:02;55.57;;;27.80;;
29500;SDS011;16450;50.288;10.966;2023-02-17T05:01:04;62.97;;;29.97;;
29500;SDS011;16450;50.288;10.966;2023-02-17T05:04:06;67.53;;;31.73;;
29500;SDS011;16450;50.288;10.966;2023-02-17T05:07:08;69.43;;;32.37;;
29500;SDS011;16450;50.288;10.966;2023-02-17T05:10:10;65.07;;;32.03;;
29500;SDS011;16450;50.288;10.966;2023-02-17T05:13:13;59.63;;;31.10;;
29500;SDS011;16450;50.288;10.966;2023-02-17T05:16:14;58.17;;;30.37;;
29500;SDS011;16450;50.288;10.966;2023-02-17T05:19:16;51.07;;;26.73;;
29500;SDS011;16450;50.288;10.966;2023-02-17T05:22:18;52.33;;;26.57;;
29500;SDS011;16450;50.288;10.966;2023-02-17T05:25:20;49.50;;;26.80;;
29500;SDS011;16450;50.288;10.966;2023-02-17T05:28:22;44.53;;;24.40;;
29500;SDS011;16450;50.288;10.966;2023-02-17T05:31:23;45.20;;;25.20;;
29500;SDS011;16450;50.288;10.966;2023-02-17T05:34:26;41.97;;;22.57;;
29500;SDS011;16450;50.288;10.966;2023-02-17T05:37:27;41.57;;;22.10;;
29500;SDS011;16450;50.288;10.966;2023-02-17T05:40:29;39.80;;;20.53;;
29500;SDS011;16450;50.288;10.966;2023-02-17T05:43:31;39.10;;;22.03;;
29500;SDS011;16450;50.288;10.966;2023-02-17T05:46:33;40.73;;;21.73;;
29500;SDS011;16450;50.288;10.966;2023-02-17T05:49:35;37.63;;;21.50;;
29500;SDS011;16450;50.288;10.966;2023-02-17T05:52:37;39.70;;;21.10;;
29500;SDS011;16450;50.288;10.966;2023-02-17T05:55:39;38.53;;;20.40;;
29500;SDS011;16450;50.288;10.966;2023-02-17T05:58:41;40.73;;;21.27;;
29500;SDS011;16450;50.288;10.966;2023-02-17T06:01:43;43.33;;;21.27;;
29500;SDS011;16450;50.288;10.966;2023-02-17T06:04:46;43.03;;;22.00;;
29500;SDS011;16450;50.288;10.966;2023-02-17T06:07:48;39.43;;;20.47;;
29500;SDS011;16450;50.288;10.966;2023-02-17T06:10:51;38.20;;;19.77;;
29500;SDS011;16450;50.288;10.966;2023-02-17T06:13:53;34.80;;;19.43;;
29500;SDS011;16450;50.288;10.966;2023-02-17T06:16:55;36.53;;;20.37;;
29500;SDS011;16450;50.288;10.966;2023-02-17T06:19:59;35.67;;;20.33;;
29500;SDS011;16450;50.288;10.966;2023-02-17T06:23:01;41.47;;;20.63;;
29500;SDS011;16450;50.288;10.966;2023-02-17T06:26:03;36.77;;;20.77;;
29500;SDS011;16450;50.288;10.966;2023-02-17T06:29:05;38.23;;;20.27;;
29500;SDS011;16450;50.288;10.966;2023-02-17T06:32:07;32.20;;;18.63;;
29500;SDS011;16450;50.288;10.966;2023-02-17T06:35:09;35.57;;;18.63;;
29500;SDS011;16450;50.288;10.966;2023-02-17T06:38:11;33.53;;;17.80;;
29500;SDS011;16450;50.288;10.966;2023-02-17T06:41:13;29.57;;;17.07;;
29500;SDS011;16450;50.288;10.966;2023-02-17T06:44:15;32.17;;;16.57;;
29500;SDS011;16450;50.288;10.966;2023-02-17T06:47:16;35.80;;;16.83;;
29500;SDS011;16450;50.288;10.966;2023-02-17T06:50:19;34.20;;;16.47;;
29500;SDS011;16450;50.288;10.966;2023-02-17T06:53:22;31.80;;;17.57;;
29500;SDS011;16450;50.288;10.966;2023-02-17T06:56:24;27.33;;;15.93;;
29500;SDS011;16450;50.288;10.966;2023-02-17T06:59:27;34.77;;;17.13;;
29500;SDS011;16450;50.288;10.966;2023-02-17T07:02:31;29.47;;;15.53;;
29500;SDS011;16450;50.288;10.966;2023-02-17T07:05:34;30.07;;;16.37;;
29500;SDS011;16450;50.288;10.966;2023-02-17T07:08:36;29.13;;;15.50;;
29500;SDS011;16450;50.288;10.966;2023-02-17T07:11:38;29.53;;;15.37;;
29500;SDS011;16450;50.288;10.966;2023-02-17T07:14:42;28.53;;;15.90;;
29500;SDS011;16450;50.288;10.966;2023-02-17T07:17:43;31.43;;;16.10;;
29500;SDS011;16450;50.288;10.966;2023-02-17T07:20:45;31.23;;;15.10;;
29500;SDS011;16450;50.288;10.966;2023-02-17T07:23:48;26.77;;;14.37;;
29500;SDS011;16450;50.288;10.966;2023-02-17T07:26:50;24.60;;;14.00;;
29500;SDS011;16450;50.288;10.966;2023-02-17T07:29:53;28.33;;;14.70;;
29500;SDS011;16450;50.288;10.966;2023-02-17T07:32:55;27.83;;;14.53;;
29500;SDS011;16450;50.288;10.966;2023-02-17T07:35:57;27.10;;;14.40;;
29500;SDS011;16450;50.288;10.966;2023-02-17T07:38:59;22.83;;;14.07;;
29500;SDS011;16450;50.288;10.966;2023-02-17T07:42:01;28.70;;;14.17;;
29500;SDS011;16450;50.288;10.966;2023-02-17T07:45:06;31.23;;;15.97;;
29500;SDS011;16450;50.288;10.966;2023-02-17T07:48:08;26.87;;;15.10;;
29500;SDS011;16450;50.288;10.966;2023-02-17T07:51:10;23.30;;;14.20;;
29500;SDS011;16450;50.288;10.966;2023-02-17T07:54:14;23.83;;;14.57;;
29500;SDS011;16450;50.288;10.966;2023-02-17T07:57:16;30.47;;;15.40;;
29500;SDS011;16450;50.288;10.966;2023-02-17T08:00:18;22.10;;;14.77;;
29500;SDS011;16450;50.288;10.966;2023-02-17T08:03:20;27.67;;;13.23;;
29500;SDS011;16450;50.288;10.966;2023-02-17T08:06:22;24.57;;;14.13;;
29500;SDS011;16450;50.288;10.966;2023-02-17T08:09:25;22.53;;;13.53;;
29500;SDS011;16450;50.288;10.966;2023-02-17T08:12:46;23.33;;;13.70;;
29500;SDS011;16450;50.288;10.966;2023-02-17T08:16:06;26.33;;;13.03;;
29500;SDS011;16450;50.288;10.966;2023-02-17T08:19:09;23.37;;;13.07;;
29500;SDS011;16450;50.288;10.966;2023-02-17T08:22:10;28.63;;;12.53;;
29500;SDS011;16450;50.288;10.966;2023-02-17T08:25:12;22.20;;;11.97;;
29500;SDS011;16450;50.288;10.966;2023-02-17T08:28:14;22.73;;;12.57;;
29500;SDS011;16450;50.288;10.966;2023-02-17T08:31:18;20.23;;;12.47;;
29500;SDS011;16450;50.288;10.966;2023-02-17T08:34:28;23.83;;;13.10;;
29500;SDS011;16450;50.288;10.966;2023-02-17T08:37:33;23.40;;;13.97;;
29500;SDS011;16450;50.288;10.966;2023-02-17T08:40:35;19.73;;;11.87;;
29500;SDS011;16450;50.288;10.966;2023-02-17T08:43:37;22.30;;;11.63;;
29500;SDS011;16450;50.288;10.966;2023-02-17T08:46:39;18.47;;;11.47;;
29500;SDS011;16450;50.288;10.966;2023-02-17T08:49:41;15.63;;;10.93;;
29500;SDS011;16450;50.288;10.966;2023-02-17T08:52:43;17.30;;;11.27;;
29500;SDS011;16450;50.288;10.966;2023-02-17T08:55:46;18.17;;;10.90;;
29500;SDS011;16450;50.288;10.966;2023-02-17T08:58:50;19.10;;;11.50;;
29500;SDS011;16450;50.288;10.966;2023-02-17T09:01:52;20.53;;;11.60;;
29500;SDS011;16450;50.288;10.966;2023-02-17T09:04:53;20.97;;;11.03;;
29500;SDS011;16450;50.288;10.966;2023-02-17T09:07:55;15.63;;;9.87;;
29500;SDS011;16450;50.288;10.966;2023-02-17T09:10:58;22.10;;;10.47;;
29500;SDS011;16450;50.288;10.966;2023-02-17T09:14:00;17.77;;;10.17;;
29500;SDS011;16450;50.288;10.966;2023-02-17T09:17:02;16.17;;;9.80;;
29500;SDS011;16450;50.288;10.966;2023-02-17T09:20:05;17.53;;;9.70;;
29500;SDS011;16450;50.288;10.966;2023-02-17T09:23:24;14.47;;;8.93;;
29500;SDS011;16450;50.288;10.966;2023-02-17T09:26:26;15.60;;;9.00;;
29500;SDS011;16450;50.288;10.966;2023-02-17T09:29:28;19.17;;;9.63;;
29500;SDS011;16450;50.288;10.966;2023-02-17T09:32:30;13.57;;;8.87;;
29500;SDS011;16450;50.288;10.966;2023-02-17T09:35:32;15.50;;;8.57;;
29500;SDS011;16450;50.288;10.966;2023-02-17T09:38:34;15.57;;;8.23;;
29500;SDS011;16450;50.288;10.966;2023-02-17T09:41:41;13.67;;;8.17;;
29500;SDS011;16450;50.288;10.966;2023-02-17T09:44:59;15.83;;;8.13;;
29500;SDS011;16450;50.288;10.966;2023-02-17T09:48:05;14.23;;;8.50;;
29500;SDS011;16450;50.288;10.966;2023-02-17T09:51:44;15.17;;;7.80;;
29500;SDS011;16450;50.288;10.966;2023-02-17T09:58:13;12.30;;;7.97;;
29500;SDS011;16450;50.288;10.966;2023-02-17T10:01:20;14.27;;;8.03;;
29500;SDS011;16450;50.288;10.966;2023-02-17T10:04:36;13.23;;;7.90;;
29500;SDS011;16450;50.288;10.966;2023-02-17T10:07:42;12.93;;;7.63;;
29500;SDS011;16450;50.288;10.966;2023-02-17T10:10:53;15.63;;;8.23;;
29500;SDS011;16450;50.288;10.966;2023-02-17T10:14:03;11.97;;;7.30;;
29500;SDS011;16450;50.288;10.966;2023-02-17T10:17:19;11.90;;;7.23;;
29500;SDS011;16450;50.288;10.966;2023-02-17T10:20:33;12.43;;;7.00;;
29500;SDS011;16450;50.288;10.966;2023-02-17T10:23:40;9.30;;;7.00;;
29500;SDS011;16450;50.288;10.966;2023-02-17T10:30:13;10.73;;;7.40;;
29500;SDS011;16450;50.288;10.966;2023-02-17T10:33:34;11.20;;;7.40;;
29500;SDS011;16450;50.288;10.966;2023-02-17T10:36:42;12.00;;;6.93;;
29500;SDS011;16450;50.288;10.966;2023-02-17T10:39:53;13.63;;;8.90;;
29500;SDS011;16450;50.288;10.966;2023-02-17T10:42:58;10.93;;;8.20;;
29500;SDS011;16450;50.288;10.966;2023-02-17T10:46:04;13.33;;;7.20;;
29500;SDS011;16450;50.288;10.966;2023-02-17T10:49:13;9.63;;;7.00;;
29500;SDS011;16450;50.288;10.966;2023-02-17T10:52:35;10.80;;;7.27;;
29500;SDS011;16450;50.288;10.966;2023-02-17T11:02:39;10.13;;;6.40;;
29500;SDS011;16450;50.288;10.966;2023-02-17T11:05:50;11.07;;;6.83;;
29500;SDS011;16450;50.288;10.966;2023-02-17T11:08:57;12.07;;;6.90;;
29500;SDS011;16450;50.288;10.966;2023-02-17T11:12:10;10.70;;;7.63;;
29500;SDS011;16450;50.288;10.966;2023-02-17T11:15:28;8.17;;;6.40;;
29500;SDS011;16450;50.288;10.966;2023-02-17T11:18:35;8.37;;;6.10;;
29500;SDS011;16450;50.288;10.966;2023-02-17T11:21:44;10.27;;;6.20;;
29500;SDS011;16450;50.288;10.966;2023-02-17T11:24:53;7.60;;;5.80;;
29500;SDS011;16450;50.288;10.966;2023-02-17T11:28:10;8.73;;;5.50;;
29500;SDS011;16450;50.288;10.966;2023-02-17T11:34:28;8.47;;;6.03;;
29500;SDS011;16450;50.288;10.966;2023-02-17T11:37:36;10.00;;;5.97;;
29500;SDS011;16450;50.288;10.966;2023-02-17T11:43:57;8.10;;;5.60;;
29500;SDS011;16450;50.288;10.966;2023-02-17T11:47:05;9.00;;;5.23;;
29500;SDS011;16450;50.288;10.966;2023-02-17T11:50:45;6.93;;;5.23;;
29500;SDS011;16450;50.288;10.966;2023-02-17T11:54:16;5.80;;;5.07;;
29500;SDS011;16450;50.288;10.966;2023-02-17T12:01:27;7.50;;;5.10;;
29500;SDS011;16450;50.288;10.966;2023-02-17T12:18:33;7.33;;;5.40;;
29500;SDS011;16450;50.288;10.966;2023-02-17T12:29:14;6.17;;;5.10;;
29500;SDS011;16450;50.288;10.966;2023-02-17T12:35:13;7.47;;;5.17;;
29500;SDS011;16450;50.288;10.966;2023-02-17T12:38:41;7.37;;;5.00;;
29500;SDS011;16450;50.288;10.966;2023-02-17T12:41:54;6.10;;;4.73;;
29500;SDS011;16450;50.288;10.966;2023-02-17T12:45:15;5.57;;;4.40;;
29500;SDS011;16450;50.288;10.966;2023-02-17T12:48:28;6.23;;;4.40;;
29500;SDS011;16450;50.288;10.966;2023-02-17T12:54:44;7.37;;;4.80;;
29500;SDS011;16450;50.288;10.966;2023-02-17T12:57:57;5.87;;;4.23;;
29500;SDS011;16450;50.288;10.966;2023-02-17T13:01:10;6.47;;;5.17;;
29500;SDS011;16450;50.288;10.966;2023-02-17T13:04:17;6.23;;;4.50;;
29500;SDS011;16450;50.288;10.966;2023-02-17T13:07:41;7.33;;;4.63;;
29500;SDS011;16450;50.288;10.966;2023-02-17T13:11:01;5.87;;;4.50;;
29500;SDS011;16450;50.288;10.966;2023-02-17T13:14:27;6.50;;;4.10;;
29500;SDS011;16450;50.288;10.966;2023-02-17T13:17:39;6.30;;;4.00;;
29500;SDS011;16450;50.288;10.966;2023-02-17T13:20:58;6.93;;;4.80;;
29500;SDS011;16450;50.288;10.966;2023-02-17T13:27:35;5.70;;;4.23;;
29500;SDS011;16450;50.288;10.966;2023-02-17T13:30:39;5.63;;;4.30;;
29500;SDS011;16450;50.288;10.966;2023-02-17T13:33:47;6.00;;;4.30;;
29500;SDS011;16450;50.288;10.966;2023-02-17T13:36:51;5.57;;;4.13;;
29500;SDS011;16450;50.288;10.966;2023-02-17T13:39:53;7.07;;;4.57;;
29500;SDS011;16450;50.288;10.966;2023-02-17T13:43:13;5.40;;;3.90;;
29500;SDS011;16450;50.288;10.966;2023-02-17T13:46:21;5.00;;;4.00;;
29500;SDS011;16450;50.288;10.966;2023-02-17T13:49:29;4.93;;;3.90;;
29500;SDS011;16450;50.288;10.966;2023-02-17T13:52:35;6.03;;;4.17;;
29500;SDS011;16450;50.288;10.966;2023-02-17T13:55:38;6.50;;;4.70;;
29500;SDS011;16450;50.288;10.966;2023-02-17T13:58:42;6.47;;;4.90;;
29500;SDS011;16450;50.288;10.966;2023-02-17T14:01:44;7.47;;;5.20;;
29500;SDS011;16450;50.288;10.966;2023-02-17T14:04:47;6.83;;;4.80;;
29500;SDS011;16450;50.288;10.966;2023-02-17T14:07:49;5.40;;;4.07;;
29500;SDS011;16450;50.288;10.966;2023-02-17T14:10:54;5.10;;;3.90;;
29500;SDS011;16450;50.288;10.966;2023-02-17T14:13:57;6.93;;;4.13;;
29500;SDS011;16450;50.288;10.966;2023-02-17T14:17:04;5.90;;;4.07;;
29500;SDS011;16450;50.288;10.966;2023-02-17T14:23:41;4.67;;;3.77;;
29500;SDS011;16450;50.288;10.966;2023-02-17T14:26:47;5.17;;;4.03;;
29500;SDS011;16450;50.288;10.966;2023-02-17T14:29:49;6.23;;;4.60;;
29500;SDS011;16450;50.288;10.966;2023-02-17T14:32:59;5.70;;;4.40;;
29500;SDS011;16450;50.288;10.966;2023-02-17T14:36:04;5.20;;;3.93;;
29500;SDS011;16450;50.288;10.966;2023-02-17T14:39:12;6.27;;;4.20;;
29500;SDS011;16450;50.288;10.966;2023-02-17T14:42:15;5.67;;;4.13;;
29500;SDS011;16450;50.288;10.966;2023-02-17T14:45:17;5.73;;;4.37;;
29500;SDS011;16450;50.288;10.966;2023-02-17T14:48:19;6.03;;;4.47;;
29500;SDS011;16450;50.288;10.966;2023-02-17T14:51:22;6.20;;;4.60;;
29500;SDS011;16450;50.288;10.966;2023-02-17T14:54:25;8.47;;;4.57;;
29500;SDS011;16450;50.288;10.966;2023-02-17T14:57:30;6.23;;;4.57;;
29500;SDS011;16450;50.288;10.966;2023-02-17T15:00:32;6.97;;;4.97;;
29500;SDS011;16450;50.288;10.966;2023-02-17T15:03:34;8.70;;;4.77;;
29500;SDS011;16450;50.288;10.966;2023-02-17T15:06:39;5.17;;;4.23;;
29500;SDS011;16450;50.288;10.966;2023-02-17T15:09:43;5.50;;;4.73;;
29500;SDS011;16450;50.288;10.966;2023-02-17T15:12:48;6.63;;;5.00;;
29500;SDS011;16450;50.288;10.966;2023-02-17T15:15:50;4.97;;;4.20;;
29500;SDS011;16450;50.288;10.966;2023-02-17T15:18:52;6.87;;;4.57;;
29500;SDS011;16450;50.288;10.966;2023-02-17T15:21:54;7.40;;;4.63;;
29500;SDS011;16450;50.288;10.966;2023-02-17T15:24:57;6.07;;;4.80;;
29500;SDS011;16450;50.288;10.966;2023-02-17T15:27:59;6.03;;;4.20;;
29500;SDS011;16450;50.288;10.966;2023-02-17T15:31:00;6.37;;;5.00;;
29500;SDS011;16450;50.288;10.966;2023-02-17T15:34:05;5.67;;;4.30;;
29500;SDS011;16450;50.288;10.966;2023-02-17T15:37:12;5.57;;;4.70;;
29500;SDS011;16450;50.288;10.966;2023-02-17T15:40:15;7.30;;;4.47;;
29500;SDS011;16450;50.288;10.966;2023-02-17T15:43:19;5.70;;;4.13;;
29500;SDS011;16450;50.288;10.966;2023-02-17T15:46:25;4.80;;;3.50;;
29500;SDS011;16450;50.288;10.966;2023-02-17T15:49:31;4.43;;;3.47;;
29500;SDS011;16450;50.288;10.966;2023-02-17T15:52:33;4.80;;;3.70;;
29500;SDS011;16450;50.288;10.966;2023-02-17T15:55:35;4.13;;;3.60;;
29500;SDS011;16450;50.288;10.966;2023-02-17T15:58:38;3.77;;;3.07;;
29500;SDS011;16450;50.288;10.966;2023-02-17T16:01:40;3.67;;;3.00;;
29500;SDS011;16450;50.288;10.966;2023-02-17T16:04:42;4.07;;;3.33;;
29500;SDS011;16450;50.288;10.966;2023-02-17T16:07:44;3.87;;;3.20;;
29500;SDS011;16450;50.288;10.966;2023-02-17T16:10:46;4.50;;;3.10;;
29500;SDS011;16450;50.288;10.966;2023-02-17T16:13:50;3.47;;;2.97;;
29500;SDS011;16450;50.288;10.966;2023-02-17T16:16:52;4.63;;;3.23;;
29500;SDS011;16450;50.288;10.966;2023-02-17T16:19:54;3.83;;;3.40;;
29500;SDS011;16450;50.288;10.966;2023-02-17T16:22:56;3.63;;;3.13;;
29500;SDS011;16450;50.288;10.966;2023-02-17T16:25:58;4.67;;;3.17;;
29500;SDS011;16450;50.288;10.966;2023-02-17T16:29:02;3.40;;;3.10;;
29500;SDS011;16450;50.288;10.966;2023-02-17T16:32:12;3.83;;;2.70;;
29500;SDS011;16450;50.288;10.966;2023-02-17T16:35:15;4.13;;;3.27;;
29500;SDS011;16450;50.288;10.966;2023-02-17T16:38:25;4.10;;;3.17;;
29500;SDS011;16450;50.288;10.966;2023-02-17T16:41:27;3.80;;;3.20;;
29500;SDS011;16450;50.288;10.966;2023-02-17T16:44:28;4.83;;;3.60;;
29500;SDS011;16450;50.288;10.966;2023-02-17T16:47:30;5.73;;;3.10;;
29500;SDS011;16450;50.288;10.966;2023-02-17T16:50:33;6.27;;;4.70;;
29500;SDS011;16450;50.288;10.966;2023-02-17T16:53:35;6.50;;;3.73;;
29500;SDS011;16450;50.288;10.966;2023-02-17T16:56:38;5.47;;;4.23;;
29500;SDS011;16450;50.288;10.966;2023-02-17T16:59:45;5.53;;;4.10;;
29500;SDS011;16450;50.288;10.966;2023-02-17T17:02:47;4.80;;;4.00;;
29500;SDS011;16450;50.288;10.966;2023-02-17T17:05:51;7.57;;;3.70;;
29500;SDS011;16450;50.288;10.966;2023-02-17T17:08:53;6.20;;;3.73;;
29500;SDS011;16450;50.288;10.966;2023-02-17T17:11:55;4.87;;;3.63;;
29500;SDS011;16450;50.288;10.966;2023-02-17T17:14:57;5.40;;;3.70;;
29500;SDS011;16450;50.288;10.966;2023-02-17T17:18:00;5.17;;;4.30;;
29500;SDS011;16450;50.288;10.966;2023-02-17T17:21:05;6.43;;;4.97;;
29500;SDS011;16450;50.288;10.966;2023-02-17T17:24:07;7.73;;;4.83;;
29500;SDS011;16450;50.288;10.966;2023-02-17T17:27:09;4.90;;;4.33;;
29500;SDS011;16450;50.288;10.966;2023-02-17T17:30:15;10.67;;;7.93;;
29500;SDS011;16450;50.288;10.966;2023-02-17T17:33:22;6.57;;;3.67;;
29500;SDS011;16450;50.288;10.966;2023-02-17T17:36:34;6.23;;;4.10;;
29500;SDS011;16450;50.288;10.966;2023-02-17T17:39:39;6.07;;;4.73;;
29500;SDS011;16450;50.288;10.966;2023-02-17T17:42:41;10.27;;;7.17;;
29500;SDS011;16450;50.288;10.966;2023-02-17T17:45:44;6.10;;;4.80;;
29500;SDS011;16450;50.288;10.966;2023-02-17T17:48:46;8.03;;;5.40;;
29500;SDS011;16450;50.288;10.966;2023-02-17T17:51:49;7.33;;;5.33;;
29500;SDS011;16450;50.288;10.966;2023-02-17T17:54:51;5.00;;;4.33;;
29500;SDS011;16450;50.288;10.966;2023-02-17T17:57:53;9.70;;;7.47;;
29500;SDS011;16450;50.288;10.966;2023-02-17T18:00:54;5.23;;;4.20;;
29500;SDS011;16450;50.288;10.966;2023-02-17T18:03:57;6.60;;;5.00;;
29500;SDS011;16450;50.288;10.966;2023-02-17T18:07:00;6.03;;;4.27;;
29500;SDS011;16450;50.288;10.966;2023-02-17T18:10:03;6.77;;;5.03;;
29500;SDS011;16450;50.288;10.966;2023-02-17T18:13:07;5.30;;;4.30;;
29500;SDS011;16450;50.288;10.966;2023-02-17T18:16:12;5.93;;;4.50;;
29500;SDS011;16450;50.288;10.966;2023-02-17T18:19:15;5.33;;;4.13;;
29500;SDS011;16450;50.288;10.966;2023-02-17T18:22:20;7.37;;;4.80;;
29500;SDS011;16450;50.288;10.966;2023-02-17T18:25:22;5.47;;;4.47;;
29500;SDS011;16450;50.288;10.966;2023-02-17T18:28:25;5.53;;;4.57;;
29500;SDS011;16450;50.288;10.966;2023-02-17T18:31:27;6.93;;;4.90;;
29500;SDS011;16450;50.288;10.966;2023-02-17T18:34:30;6.40;;;4.40;;
29500;SDS011;16450;50.288;10.966;2023-02-17T18:37:32;5.20;;;4.30;;
29500;SDS011;16450;50.288;10.966;2023-02-17T18:40:36;6.17;;;4.80;;
29500;SDS011;16450;50.288;10.966;2023-02-17T18:43:39;5.93;;;4.23;;
29500;SDS011;16450;50.288;10.966;2023-02-17T18:46:41;6.40;;;4.43;;
29500;SDS011;16450;50.288;10.966;2023-02-17T18:49:43;7.27;;;5.20;;
29500;SDS011;16450;50.288;10.966;2023-02-17T18:52:45;6.70;;;5.20;;
29500;SDS011;16450;50.288;10.966;2023-02-17T18:55:47;6.83;;;4.77;;
29500;SDS011;16450;50.288;10.966;2023-02-17T18:58:49;5.90;;;4.33;;
29500;SDS011;16450;50.288;10.966;2023-02-17T19:01:52;5.83;;;5.20;;
29500;SDS011;16450;50.288;10.966;2023-02-17T19:04:54;7.43;;;5.10;;
29500;SDS011;16450;50.288;10.966;2023-02-17T19:07:56;5.37;;;4.37;;
29500;SDS011;16450;50.288;10.966;2023-02-17T19:10:58;6.40;;;4.80;;
29500;SDS011;16450;50.288;10.966;2023-02-17T19:14:00;6.20;;;5.00;;
29500;SDS011;16450;50.288;10.966;2023-02-17T19:17:03;6.90;;;5.50;;
29500;SDS011;16450;50.288;10.966;2023-02-17T19:20:05;7.27;;;5.50;;